Time;durP1;ratioP1;P1;durP2;ratioP2;P2;SDS_P1;SDS_P2;PMS_P1;PMS_P2;Temp;Humidity;BMP_temperature;BMP_pressure;BME280_temperature;BME280_humidity;BME280_pressure;Samples;Min_cycle;Max_cycle;Signal;HPM_P1;HPM_P2
2023/03/06 00:00:31;;;;;;;32.28;15.43;;;1.40;1.00;;;;;;6285217;22;20066;-86
2023/03/06 00:03:21;;;;;;;34.10;15.30;;;1.40;1.00;;;;;;6262701;22;20034;-87
2023/03/06 00:06:09;;;;;;;27.63;15.07;;;1.40;1.00;;;;;;6286738;22;20056;-87
2023/03/06 00:08:56;;;;;;;29.40;14.93;;;1.40;1.00;;;;;;6288068;22;20030;-89
2023/03/06 00:11:45;;;;;;;31.48;15.48;;;1.40;1.00;;;;;;6285172;22;20070;-84
2023/03/06 00:14:36;;;;;;;31.50;16.02;;;1.40;1.00;;;;;;6285061;22;20322;-87
2023/03/06 00:17:27;;;;;;;35.30;17.58;;;1.30;1.00;;;;;;6280299;22;20035;-84
2023/03/06 00:20:16;;;;;;;34.67;16.83;;;1.40;1.00;;;;;;6284801;22;20085;-85
2023/03/06 00:23:06;;;;;;;40.78;17.08;;;1.30;1.00;;;;;;6285945;22;20062;-86
2023/03/06 00:25:53;;;;;;;34.30;16.58;;;1.40;1.00;;;;;;6262234;22;20024;-87
2023/03/06 00:28:40;;;;;;;34.92;16.95;;;1.30;1.00;;;;;;6282346;22;20031;-89
2023/03/06 00:31:30;;;;;;;34.45;17.10;;;1.40;1.00;;;;;;6278385;22;20367;-85
2023/03/06 00:34:17;;;;;;;34.38;17.05;;;1.40;1.00;;;;;;6287436;22;20042;-85
2023/03/06 00:37:04;;;;;;;36.33;18.17;;;1.40;1.00;;;;;;6294107;22;20028;-87
2023/03/06 00:39:54;;;;;;;41.78;18.42;;;1.40;1.00;;;;;;6293693;22;20031;-88
2023/03/06 00:42:43;;;;;;;39.05;18.92;;;1.40;1.00;;;;;;6290331;22;20023;-87
2023/03/06 00:45:30;;;;;;;39.40;18.92;;;1.30;1.00;;;;;;6287011;22;20027;-88
2023/03/06 00:48:17;;;;;;;35.85;18.85;;;1.30;1.00;;;;;;6288966;22;20016;-87
2023/03/06 00:51:05;;;;;;;39.78;19.20;;;1.30;1.00;;;;;;6265862;22;20024;-88
2023/03/06 00:53:53;;;;;;;44.30;19.92;;;1.20;1.00;;;;;;6286179;22;20057;-88
2023/03/06 00:56:40;;;;;;;44.83;19.67;;;1.20;1.00;;;;;;6262622;22;20038;-86
2023/03/06 00:59:32;;;;;;;40.63;18.63;;;1.30;1.00;;;;;;6285536;22;20031;-87
2023/03/06 01:02:20;;;;;;;38.88;18.92;;;1.30;1.00;;;;;;6288373;22;20043;-87
2023/03/06 01:05:08;;;;;;;43.58;19.65;;;1.30;1.00;;;;;;6298923;22;20069;-83
2023/03/06 01:07:55;;;;;;;40.35;18.95;;;1.30;1.00;;;;;;6273578;22;20050;-86
2023/03/06 01:10:42;;;;;;;44.15;19.58;;;1.30;1.00;;;;;;6286047;22;20035;-86
2023/03/06 01:13:32;;;;;;;42.28;20.92;;;1.30;1.00;;;;;;6264760;22;20024;-88
2023/03/06 01:16:20;;;;;;;45.35;20.38;;;1.20;1.00;;;;;;6264963;22;20031;-87
2023/03/06 01:19:07;;;;;;;38.63;19.27;;;1.20;1.00;;;;;;6282935;22;20031;-88
2023/03/06 01:22:00;;;;;;;40.08;20.98;;;1.30;1.00;;;;;;6282107;22;20028;-85
2023/03/06 01:24:48;;;;;;;42.63;19.95;;;1.30;1.00;;;;;;6285922;22;20024;-86
2023/03/06 01:27:37;;;;;;;44.28;20.63;;;1.30;1.00;;;;;;6287246;22;20028;-88
2023/03/06 01:30:24;;;;;;;42.63;20.02;;;1.20;1.00;;;;;;6288584;22;20024;-86
2023/03/06 01:33:12;;;;;;;37.85;19.40;;;1.20;1.00;;;;;;6285764;22;20035;-88
2023/03/06 01:36:02;;;;;;;40.13;19.65;;;1.30;1.00;;;;;;6265698;22;20031;-86
2023/03/06 01:38:49;;;;;;;45.58;20.35;;;1.30;1.00;;;;;;6286155;22;20446;-87
2023/03/06 01:41:36;;;;;;;44.42;19.98;;;1.30;1.00;;;;;;6260491;22;20027;-88
2023/03/06 01:44:24;;;;;;;42.10;21.15;;;1.30;1.00;;;;;;6281259;22;20023;-85
2023/03/06 01:47:11;;;;;;;44.72;21.10;;;1.30;1.00;;;;;;6259152;22;20023;-86
2023/03/06 01:50:02;;;;;;;43.75;21.17;;;1.20;1.00;;;;;;6284820;22;20039;-86
2023/03/06 01:52:58;;;;;;;44.95;20.40;;;1.20;1.00;;;;;;6261016;22;20046;-87
2023/03/06 01:55:48;;;;;;;45.97;21.38;;;1.20;1.00;;;;;;6264025;22;20439;-87
2023/03/06 01:58:36;;;;;;;42.42;20.73;;;1.20;1.00;;;;;;6286886;22;20074;-87
2023/03/06 02:01:25;;;;;;;42.35;19.52;;;1.20;1.00;;;;;;6263404;22;20315;-88
2023/03/06 02:04:12;;;;;;;37.92;19.52;;;1.20;1.00;;;;;;6284716;22;20032;-88
2023/03/06 02:07:07;;;;;;;39.78;19.75;;;1.20;1.00;;;;;;6262775;22;20108;-86
2023/03/06 02:09:55;;;;;;;42.13;20.25;;;1.20;1.00;;;;;;6296312;22;20105;-88
2023/03/06 02:12:43;;;;;;;39.85;19.35;;;1.20;1.00;;;;;;6296840;22;20027;-88
2023/03/06 02:15:31;;;;;;;43.65;19.60;;;1.20;1.00;;;;;;6296237;22;20095;-83
2023/03/06 02:18:18;;;;;;;35.47;17.58;;;1.20;1.00;;;;;;6300266;22;20007;-84
2023/03/06 02:21:09;;;;;;;34.42;17.55;;;1.20;1.00;;;;;;6303449;22;20023;-81
2023/03/06 02:24:13;;;;;;;36.17;18.17;;;1.20;1.00;;;;;;6303161;22;20022;-83
2023/03/06 02:27:03;;;;;;;39.28;17.70;;;1.20;1.00;;;;;;6299438;22;20020;-87
2023/03/06 02:29:53;;;;;;;35.90;18.40;;;1.20;1.00;;;;;;6279126;22;20027;-88
2023/03/06 02:32:43;;;;;;;37.33;17.27;;;1.20;1.00;;;;;;6302594;22;20024;-85
2023/03/06 02:35:37;;;;;;;31.45;16.85;;;1.10;1.00;;;;;;6298493;22;20024;-84
2023/03/06 02:38:50;;;;;;;36.83;18.17;;;1.10;1.00;;;;;;6299770;22;20036;-86
2023/03/06 02:41:40;;;;;;;33.63;17.83;;;1.20;1.00;;;;;;6296909;22;20064;-86
2023/03/06 02:44:28;;;;;;;33.40;16.58;;;1.20;1.00;;;;;;6298046;22;20047;-88
2023/03/06 02:47:18;;;;;;;40.28;18.15;;;1.20;1.00;;;;;;6267959;22;20024;-88
2023/03/06 02:50:06;;;;;;;33.53;17.10;;;1.20;1.00;;;;;;6291540;22;20054;-85
2023/03/06 02:52:53;;;;;;;37.72;18.27;;;1.20;1.00;;;;;;6292429;22;20020;-88
2023/03/06 02:55:43;;;;;;;39.03;18.00;;;1.20;1.00;;;;;;6294803;22;20024;-84
2023/03/06 02:58:30;;;;;;;33.22;17.67;;;1.20;1.00;;;;;;6290601;22;20032;-84
2023/03/06 03:01:18;;;;;;;34.25;16.48;;;1.20;1.00;;;;;;6292541;22;20079;-84
2023/03/06 03:04:05;;;;;;;34.53;17.63;;;1.20;1.00;;;;;;6294106;22;20043;-82
2023/03/06 03:06:56;;;;;;;34.63;17.40;;;1.30;1.00;;;;;;6291366;22;20027;-87
2023/03/06 03:09:44;;;;;;;33.72;16.85;;;1.20;1.00;;;;;;6254379;22;20020;-85
2023/03/06 03:12:31;;;;;;;35.97;17.52;;;1.30;1.00;;;;;;6272748;22;20020;-85
2023/03/06 03:15:26;;;;;;;28.33;16.33;;;1.30;1.00;;;;;;6295915;22;20050;-86
2023/03/06 03:18:13;;;;;;;38.05;18.27;;;1.30;1.00;;;;;;6295735;22;20210;-88
2023/03/06 03:21:01;;;;;;;32.25;16.63;;;1.30;1.00;;;;;;6292459;22;20078;-87
2023/03/06 03:23:50;;;;;;;29.48;16.08;;;1.20;1.00;;;;;;6300551;22;20028;-84
2023/03/06 03:26:37;;;;;;;37.47;17.25;;;1.20;1.00;;;;;;6301165;22;20027;-87
2023/03/06 03:29:27;;;;;;;36.47;17.85;;;1.20;1.00;;;;;;6297526;22;20047;-85
2023/03/06 03:32:14;;;;;;;42.22;22.00;;;1.20;1.00;;;;;;6291301;22;20058;-85
2023/03/06 03:35:04;;;;;;;41.03;20.83;;;1.20;1.00;;;;;;6295008;22;20024;-85
2023/03/06 03:37:53;;;;;;;34.30;17.58;;;1.20;1.00;;;;;;6294990;22;20028;-86
2023/03/06 03:40:41;;;;;;;32.65;17.00;;;1.20;1.00;;;;;;6294232;22;20031;-84
2023/03/06 03:43:28;;;;;;;34.72;18.10;;;1.10;1.00;;;;;;6293279;22;20050;-85
2023/03/06 03:46:16;;;;;;;28.00;15.43;;;1.10;1.00;;;;;;6293833;22;20027;-86
2023/03/06 03:49:08;;;;;;;35.53;17.45;;;1.10;1.00;;;;;;6294496;22;20020;-86
2023/03/06 03:51:58;;;;;;;31.33;17.38;;;1.10;1.00;;;;;;6275793;22;20008;-87
2023/03/06 03:54:47;;;;;;;23.33;12.70;;;1.10;1.00;;;;;;6277883;22;20051;-86
2023/03/06 03:57:38;;;;;;;32.65;16.85;;;1.10;1.00;;;;;;6298830;22;20024;-84
2023/03/06 04:00:31;;;;;;;36.17;16.60;;;1.10;1.00;;;;;;6297416;22;20027;-86
2023/03/06 04:03:18;;;;;;;36.67;17.00;;;1.00;1.00;;;;;;6297479;22;20057;-86
2023/03/06 04:06:08;;;;;;;34.13;17.75;;;1.00;1.00;;;;;;6272966;22;20032;-83
2023/03/06 04:08:56;;;;;;;30.15;16.67;;;1.00;1.00;;;;;;6296258;22;20028;-83
2023/03/06 04:11:46;;;;;;;34.65;16.77;;;1.00;1.00;;;;;;6298794;22;20057;-87
2023/03/06 04:14:34;;;;;;;35.05;16.98;;;1.00;1.00;;;;;;6296131;22;20027;-85
2023/03/06 04:17:25;;;;;;;34.30;16.65;;;1.10;1.00;;;;;;6276253;22;20018;-85
2023/03/06 04:20:13;;;;;;;35.13;17.23;;;1.00;1.00;;;;;;6297798;22;20035;-86
2023/03/06 04:23:03;;;;;;;34.08;18.15;;;0.90;1.00;;;;;;6298444;22;20020;-89
2023/03/06 04:25:50;;;;;;;30.40;16.10;;;0.90;1.00;;;;;;6297215;22;20493;-87
2023/03/06 04:28:42;;;;;;;29.60;15.88;;;0.90;1.00;;;;;;6295620;22;20028;-88
2023/03/06 04:31:37;;;;;;;30.50;16.80;;;0.80;1.00;;;;;;6295650;22;20024;-85
2023/03/06 04:34:25;;;;;;;34.60;17.70;;;0.90;1.00;;;;;;6295328;22;20032;-86
2023/03/06 04:37:23;;;;;;;29.98;15.88;;;0.80;1.00;;;;;;6295271;22;20050;-84
2023/03/06 04:40:20;;;;;;;31.23;16.58;;;0.80;1.00;;;;;;6274078;22;20034;-84
2023/03/06 04:43:08;;;;;;;31.83;17.65;;;0.70;1.40;;;;;;6296405;22;20035;-86
2023/03/06 04:45:57;;;;;;;30.13;16.05;;;0.70;5.50;;;;;;6296182;22;20026;-84
2023/03/06 04:48:46;;;;;;;29.90;16.20;;;0.70;9.20;;;;;;6300235;22;20043;-84
2023/03/06 04:51:37;;;;;;;35.15;18.40;;;0.60;15.80;;;;;;6300618;22;20025;-85
2023/03/06 04:54:25;;;;;;;27.17;15.75;;;0.60;21.20;;;;;;6278979;22;20008;-88
2023/03/06 04:57:13;;;;;;;30.65;16.20;;;0.60;24.80;;;;;;6297945;22;20023;-86
2023/03/06 05:00:09;;;;;;;35.45;17.73;;;0.50;30.30;;;;;;6280582;22;20020;-85
2023/03/06 05:03:20;;;;;;;33.67;16.20;;;0.60;33.70;;;;;;6279452;22;20045;-87
2023/03/06 05:06:12;;;;;;;28.80;15.60;;;0.50;38.20;;;;;;6259311;22;20012;-87
2023/03/06 05:09:28;;;;;;;29.55;16.48;;;0.50;44.00;;;;;;6301400;22;20070;-84
2023/03/06 05:12:24;;;;;;;29.10;15.05;;;0.50;56.80;;;;;;6299991;22;20076;-84
2023/03/06 05:15:17;;;;;;;30.88;15.98;;;0.50;56.80;;;;;;6302139;22;20071;-84
2023/03/06 05:18:09;;;;;;;36.75;16.02;;;0.60;53.00;;;;;;6302029;22;20036;-84
2023/03/06 05:21:04;;;;;;;33.60;16.85;;;0.60;48.70;;;;;;6302301;22;20047;-88
2023/03/06 05:23:51;;;;;;;34.75;17.25;;;0.70;51.70;;;;;;6292170;22;20026;-83
2023/03/06 05:26:39;;;;;;;31.77;16.30;;;0.70;54.40;;;;;;6281183;22;20031;-83
2023/03/06 05:29:26;;;;;;;39.97;16.92;;;0.70;49.70;;;;;;6276712;22;20086;-84
2023/03/06 05:32:16;;;;;;;33.08;17.40;;;0.70;50.20;;;;;;6238304;22;20497;-84
2023/03/06 05:35:05;;;;;;;32.78;16.02;;;0.80;51.50;;;;;;6256745;22;20107;-83
2023/03/06 05:37:55;;;;;;;37.70;17.77;;;0.80;53.50;;;;;;6256415;22;20043;-83
2023/03/06 05:40:46;;;;;;;40.60;17.52;;;0.90;53.00;;;;;;6235420;22;20543;-81
2023/03/06 05:43:37;;;;;;;34.85;17.40;;;0.80;58.40;;;;;;6262919;22;20039;-83
2023/03/06 05:46:25;;;;;;;35.67;19.02;;;0.90;41.80;;;;;;6294816;22;20038;-81
2023/03/06 05:49:12;;;;;;;31.23;17.95;;;0.90;38.10;;;;;;6292954;22;20031;-84
2023/03/06 05:52:02;;;;;;;41.55;19.13;;;0.90;32.30;;;;;;6258360;22;20362;-83
2023/03/06 05:54:52;;;;;;;37.17;18.50;;;0.90;35.00;;;;;;6255947;22;20077;-85
2023/03/06 05:57:40;;;;;;;38.05;17.98;;;0.90;35.60;;;;;;6279143;22;20034;-82
2023/03/06 06:00:28;;;;;;;34.17;17.65;;;0.90;33.70;;;;;;6255662;22;20020;-83
2023/03/06 06:03:18;;;;;;;36.10;18.73;;;0.90;39.40;;;;;;6256292;22;20429;-83
2023/03/06 06:06:06;;;;;;;39.58;18.88;;;0.80;50.20;;;;;;6252887;22;20375;-82
2023/03/06 06:08:56;;;;;;;37.30;18.52;;;0.80;59.30;;;;;;6277261;22;20026;-84
2023/03/06 06:11:43;;;;;;;42.50;18.50;;;0.80;59.70;;;;;;6278954;22;20028;-83
2023/03/06 06:14:33;;;;;;;39.83;20.25;;;0.80;63.90;;;;;;6280804;22;20023;-86
2023/03/06 06:17:22;;;;;;;34.50;17.65;;;0.70;69.90;;;;;;6278045;22;20023;-83
2023/03/06 06:20:13;;;;;;;36.50;18.63;;;0.80;79.30;;;;;;6277340;22;20324;-84
2023/03/06 06:23:00;;;;;;;37.30;19.17;;;0.70;87.10;;;;;;6278732;22;20020;-83
2023/03/06 06:25:48;;;;;;;36.67;19.25;;;0.70;92.70;;;;;;6255164;22;20063;-83
2023/03/06 06:28:38;;;;;;;30.73;17.83;;;0.70;99.90;;;;;;6257448;22;20024;-84
2023/03/06 06:31:25;;;;;;;37.83;18.98;;;0.70;99.90;;;;;;6278348;22;20028;-84
2023/03/06 06:44:09;;;;;;;;;;;;;;;;;;;;;
2023/03/06 06:46:42;;;;;;;41.63;19.40;;;0.80;99.90;;;;;;5879568;24;20104;-85
2023/03/06 06:53:05;;;;;;;34.08;18.10;;;0.90;99.90;;;;;;5941363;23;20092;-82
2023/03/06 06:56:08;;;;;;;;;;;;;;;;;;;;;
2023/03/06 06:59:08;;;;;;;40.78;18.38;;;1.00;99.90;;;;;;6162547;23;20029;-84
2023/03/06 07:19:41;;;;;;;;;;;;;;;;;;;;;
2023/03/06 08:22:34;;;;;;;26.85;15.93;;;3.00;99.90;;;;;;6275979;22;20035;-84
2023/03/06 08:25:24;;;;;;;28.20;15.85;;;3.10;99.90;;;;;;6233921;23;20028;-83
2023/03/06 08:28:35;;;;;;;25.77;15.32;;;3.10;99.90;;;;;;6243448;23;20343;-83
2023/03/06 08:31:36;;;;;;;23.48;13.52;;;3.30;99.90;;;;;;6235496;23;20028;-82
2023/03/06 08:34:28;;;;;;;24.08;13.27;;;3.30;99.90;;;;;;6230838;22;20110;-81
2023/03/06 08:37:36;;;;;;;21.33;12.27;;;3.40;99.90;;;;;;6229027;22;20032;-83
2023/03/06 09:20:58;;;;;;;15.82;9.65;;;4.50;99.90;;;;;;6126417;23;20053;-84
2023/03/06 09:32:32;;;;;;;18.80;10.50;;;4.40;99.90;;;;;;6171541;23;20496;-84
2023/03/06 09:40:56;;;;;;;15.57;9.63;;;4.40;99.90;;;;;;6202574;23;20089;-81
2023/03/06 09:44:07;;;;;;;16.50;9.15;;;4.60;99.90;;;;;;6189443;23;20035;-80
2023/03/06 09:47:51;;;;;;;;;;;;;;;;;;;;;
2023/03/06 09:51:07;;;;;;;16.52;10.00;;;4.60;99.90;;;;;;6210201;23;20072;-87
2023/03/06 09:54:17;;;;;;;17.15;10.10;;;4.40;99.90;;;;;;6195397;23;20056;-83
2023/03/06 09:57:57;;;;;;;15.27;9.45;;;4.40;99.90;;;;;;6196147;23;20039;-86
2023/03/06 10:01:53;;;;;;;;;;;;;;;;;;;;;
2023/03/06 10:05:01;;;;;;;;;;;;;;;;;;;;;
2023/03/06 10:12:25;;;;;;;17.05;9.63;;;4.00;99.90;;;;;;6092479;23;20049;-86
2023/03/06 10:15:44;;;;;;;20.33;10.63;;;4.00;99.90;;;;;;6125210;23;20116;-84
2023/03/06 10:19:09;;;;;;;17.02;10.23;;;4.00;99.90;;;;;;6106188;23;20025;-85
2023/03/06 10:23:09;;;;;;;19.52;10.10;;;4.00;99.90;;;;;;6108763;23;20066;-85
2023/03/06 10:26:54;;;;;;;;;;;;;;;;;;;;;
2023/03/06 10:30:00;;;;;;;18.67;10.57;;;4.10;99.90;;;;;;6126052;23;20067;-85
2023/03/06 10:33:02;;;;;;;18.25;10.65;;;4.20;99.90;;;;;;6119065;23;20061;-85
2023/03/06 10:40:37;;;;;;;;;;;;;;;;;;;;;
2023/03/06 10:48:38;;;;;;;;;;;;;;;;;;;;;
2023/03/06 10:52:18;;;;;;;20.20;11.27;;;3.50;99.90;;;;;;6020095;23;20117;-85
2023/03/06 11:00:21;;;;;;;;;;;;;;;;;;;;;
2023/03/06 11:03:51;;;;;;;17.60;9.55;;;3.60;99.90;;;;;;5921147;24;20212;-86
2023/03/06 11:07:27;;;;;;;;;;;;;;;;;;;;;
2023/03/06 11:15:28;;;;;;;22.50;10.32;;;3.70;99.90;;;;;;5848623;24;20057;-87
2023/03/06 11:46:22;;;;;;;;;;;;;;;;;;;;;
2023/03/06 11:50:10;;;;;;;18.08;10.20;;;4.90;99.90;;;;;;5961542;24;20470;-87
2023/03/06 12:01:51;;;;;;;15.32;9.77;;;6.00;99.90;;;;;;5890071;24;20021;-88
2023/03/06 12:09:00;;;;;;;16.77;9.60;;;5.70;99.90;;;;;;6024946;23;20462;-85
2023/03/06 12:12:30;;;;;;;14.02;8.75;;;6.50;99.90;;;;;;6045849;23;20027;-87
2023/03/06 12:15:47;;;;;;;16.17;8.75;;;6.90;99.90;;;;;;6041500;23;20128;-84
2023/03/06 12:18:37;;;;;;;14.60;9.02;;;6.60;99.90;;;;;;6086141;23;20509;-86
2023/03/06 12:21:54;;;;;;;13.82;8.85;;;6.40;99.90;;;;;;6132734;23;20033;-83
2023/03/06 12:25:04;;;;;;;15.13;9.43;;;6.70;99.90;;;;;;6255177;23;20031;-85
2023/03/06 12:28:34;;;;;;;12.32;8.27;;;6.90;99.90;;;;;;6248306;23;20040;-85
2023/03/06 12:31:45;;;;;;;14.82;9.02;;;6.60;99.90;;;;;;6249728;23;20038;-87
2023/03/06 12:39:06;;;;;;;16.42;9.57;;;5.60;99.90;;;;;;6092945;23;20041;-85
2023/03/06 12:42:36;;;;;;;15.30;9.15;;;5.40;99.90;;;;;;6109814;23;20036;-85
2023/03/06 12:50:06;;;;;;;17.10;9.38;;;5.50;99.90;;;;;;6155516;23;20053;-86
2023/03/06 12:56:48;;;;;;;15.60;8.85;;;5.80;99.90;;;;;;6066574;23;20022;-87
2023/03/06 13:00:03;;;;;;;15.43;9.90;;;5.90;99.90;;;;;;6041137;23;20068;-83
2023/03/06 13:03:27;;;;;;;14.85;9.13;;;5.90;99.90;;;;;;6047649;23;20027;-85
2023/03/06 13:10:41;;;;;;;17.45;9.20;;;5.20;99.90;;;;;;6155262;23;20103;-84
2023/03/06 13:18:23;;;;;;;16.00;8.75;;;4.90;99.90;;;;;;6032962;23;20038;-86
2023/03/06 13:21:41;;;;;;;15.27;9.68;;;4.90;99.90;;;;;;6054587;23;20097;-87
2023/03/06 13:25:20;;;;;;;16.75;9.18;;;4.80;99.90;;;;;;6059439;23;20106;-85
2023/03/06 13:28:23;;;;;;;13.95;7.85;;;4.70;99.90;;;;;;6048352;23;20087;-85
2023/03/06 13:31:36;;;;;;;14.27;8.95;;;4.90;99.90;;;;;;6049835;23;20094;-84
2023/03/06 13:34:54;;;;;;;16.17;8.70;;;5.00;98.40;;;;;;6057923;23;20027;-84
2023/03/06 13:38:29;;;;;;;13.68;8.93;;;4.90;99.80;;;;;;6040945;23;20058;-85
2023/03/06 13:46:36;;;;;;;;;;;4.70;98.30;;;;;;5966131;23;20028;-87
2023/03/06 13:49:36;;;;;;;14.68;8.77;;;4.50;98.00;;;;;;6023155;23;20317;-85
2023/03/06 13:53:21;;;;;;;15.25;8.00;;;4.60;96.50;;;;;;6041597;23;20027;-84
2023/03/06 13:56:42;;;;;;;13.10;8.90;;;4.50;97.90;;;;;;6067704;23;20123;-86
2023/03/06 13:59:59;;;;;;;15.20;8.48;;;4.40;99.90;;;;;;6062852;23;20153;-86
2023/03/06 14:03:34;;;;;;;;;;;;;;;;;;;;;
2023/03/06 14:06:46;;;;;;;;;;;;;;;;;;;;;
2023/03/06 14:10:22;;;;;;;;;;;;;;;;;;;;;
2023/03/06 14:13:36;;;;;;;13.50;7.82;;;4.30;94.90;;;;;;6067280;23;20053;-85
2023/03/06 14:17:00;;;;;;;13.02;7.85;;;4.20;93.40;;;;;;6123641;23;20085;-86
2023/03/06 14:20:55;;;;;;;14.45;8.73;;;4.20;93.20;;;;;;6073115;23;20023;-85
2023/03/06 14:23:45;;;;;;;15.15;9.23;;;4.30;97.10;;;;;;6108844;23;20022;-86
2023/03/06 14:26:43;;;;;;;16.08;8.13;;;4.20;92.20;;;;;;6079646;23;20054;-84
2023/03/06 14:29:37;;;;;;;15.77;9.15;;;4.20;97.60;;;;;;6163344;23;20039;-86
2023/03/06 14:32:59;;;;;;;12.90;8.52;;;4.30;96.50;;;;;;6087181;23;20027;-84
2023/03/06 14:36:09;;;;;;;16.75;8.93;;;4.30;97.20;;;;;;6149816;23;20041;-85
2023/03/06 14:39:21;;;;;;;14.68;8.95;;;4.30;95.50;;;;;;6152749;23;20031;-83
2023/03/06 14:42:19;;;;;;;15.60;9.15;;;4.30;96.40;;;;;;6113573;23;20038;-87
2023/03/06 15:50:53;;;;;;;19.13;10.80;;;2.80;99.90;;;;;;6249753;22;1898785;-85
2023/03/06 15:54:05;;;;;;;18.27;10.25;;;2.80;99.90;;;;;;6132466;23;20063;-86
2023/03/06 15:57:06;;;;;;;19.05;10.23;;;2.80;99.90;;;;;;6136597;23;20022;-85
2023/03/06 16:00:00;;;;;;;22.35;12.05;;;2.80;99.90;;;;;;6131088;23;20052;-85
2023/03/06 16:03:02;;;;;;;18.92;11.15;;;2.90;99.90;;;;;;6140103;23;20025;-85
2023/03/06 16:06:07;;;;;;;20.10;10.38;;;2.90;99.90;;;;;;6116775;23;20373;-86
2023/03/06 16:08:57;;;;;;;19.52;11.82;;;2.90;99.90;;;;;;6133071;23;20061;-86
2023/03/06 16:11:51;;;;;;;20.10;11.45;;;2.90;99.90;;;;;;6131514;23;20460;-86
2023/03/06 16:15:22;;;;;;;23.27;12.65;;;2.80;99.90;;;;;;6132050;23;20104;-85
2023/03/06 16:18:13;;;;;;;25.83;12.55;;;2.80;99.90;;;;;;6173616;23;20028;-86
2023/03/06 16:21:21;;;;;;;26.17;12.75;;;2.80;99.90;;;;;;6200686;23;20025;-85
2023/03/06 16:24:42;;;;;;;20.30;12.25;;;2.70;99.90;;;;;;6198612;23;20099;-88
2023/03/06 16:27:38;;;;;;;20.35;12.25;;;2.70;99.90;;;;;;6194641;23;20040;-88
2023/03/06 16:30:37;;;;;;;23.45;12.30;;;2.70;99.90;;;;;;6185682;23;20024;-85
2023/03/06 16:33:39;;;;;;;24.02;12.70;;;2.70;99.90;;;;;;6188411;23;20029;-84
2023/03/06 16:36:37;;;;;;;23.15;12.82;;;2.60;99.90;;;;;;6191375;23;20045;-86
2023/03/06 16:39:37;;;;;;;29.25;15.00;;;2.60;99.90;;;;;;6189793;23;20036;-88
2023/03/06 16:42:55;;;;;;;27.60;14.52;;;2.70;99.90;;;;;;6186672;23;20057;-85
2023/03/06 16:45:56;;;;;;;25.75;13.82;;;2.60;99.90;;;;;;6187759;23;20076;-86
2023/03/06 16:48:44;;;;;;;26.58;13.75;;;2.60;99.90;;;;;;6186638;23;20459;-85
2023/03/06 16:51:40;;;;;;;21.83;12.00;;;2.60;99.90;;;;;;6187436;23;20028;-85
2023/03/06 16:54:28;;;;;;;21.23;12.35;;;2.50;99.90;;;;;;6186958;23;20035;-86
2023/03/06 16:57:16;;;;;;;26.85;13.20;;;2.50;99.90;;;;;;6184897;23;20025;-88
2023/03/06 17:00:05;;;;;;;30.70;14.70;;;2.50;99.90;;;;;;6187320;23;20117;-84
2023/03/06 17:02:55;;;;;;;21.88;13.50;;;2.50;99.90;;;;;;6187126;23;20052;-84
2023/03/06 17:05:43;;;;;;;25.77;14.50;;;2.50;99.90;;;;;;6184447;23;20016;-86
2023/03/06 17:08:31;;;;;;;29.08;14.75;;;2.50;99.90;;;;;;6187284;23;20052;-86
2023/03/06 17:11:23;;;;;;;23.85;13.98;;;2.50;99.90;;;;;;6184862;23;20029;-86
2023/03/06 17:14:13;;;;;;;26.58;14.55;;;2.50;99.90;;;;;;6186882;23;20033;-86
2023/03/06 17:17:02;;;;;;;28.33;15.10;;;2.50;99.90;;;;;;6186571;23;20029;-84
2023/03/06 17:19:52;;;;;;;26.20;14.88;;;2.40;99.90;;;;;;6184398;23;20025;-82
2023/03/06 17:22:40;;;;;;;24.00;14.38;;;2.40;99.90;;;;;;6186280;23;20083;-84
2023/03/06 17:25:27;;;;;;;31.27;16.60;;;2.40;99.90;;;;;;6186385;23;20017;-85
2023/03/06 17:28:15;;;;;;;25.50;14.25;;;2.40;99.90;;;;;;6184804;23;20087;-86
2023/03/06 17:31:13;;;;;;;26.67;14.23;;;2.40;99.90;;;;;;6184145;23;20048;-86
2023/03/06 17:34:03;;;;;;;24.90;14.82;;;2.40;99.90;;;;;;6185622;23;20033;-86
2023/03/06 17:36:51;;;;;;;24.15;13.85;;;2.30;99.90;;;;;;6186792;23;20029;-84
2023/03/06 17:39:39;;;;;;;24.85;14.45;;;2.40;99.90;;;;;;6187453;23;20025;-86
2023/03/06 17:42:28;;;;;;;27.23;15.32;;;2.30;99.90;;;;;;6185755;23;20048;-84
2023/03/06 17:45:23;;;;;;;26.10;15.10;;;2.30;99.90;;;;;;6185773;23;20096;-87
2023/03/06 17:48:10;;;;;;;26.92;14.35;;;2.30;99.90;;;;;;6186155;23;20036;-86
2023/03/06 17:51:05;;;;;;;25.10;14.07;;;2.30;99.90;;;;;;6186917;23;20025;-86
2023/03/06 17:53:52;;;;;;;22.48;14.52;;;2.30;99.90;;;;;;6186112;23;20053;-85
2023/03/06 17:56:40;;;;;;;25.70;14.13;;;2.30;99.90;;;;;;6184567;23;20032;-86
2023/03/06 17:59:29;;;;;;;29.80;15.32;;;2.20;99.90;;;;;;6184678;23;20396;-85
2023/03/06 18:02:20;;;;;;;25.25;14.52;;;2.20;99.90;;;;;;6187179;23;20436;-84
2023/03/06 18:05:08;;;;;;;24.77;14.40;;;2.20;99.90;;;;;;6186408;23;20036;-86
2023/03/06 18:07:55;;;;;;;30.05;15.27;;;2.20;99.90;;;;;;6185163;23;20029;-88
2023/03/06 18:10:46;;;;;;;27.05;15.40;;;2.20;99.90;;;;;;6184912;23;20171;-87
2023/03/06 18:13:38;;;;;;;27.65;15.88;;;2.20;99.90;;;;;;6187833;23;20116;-86
2023/03/06 18:16:26;;;;;;;30.67;16.73;;;2.20;99.90;;;;;;6190162;23;20029;-85
2023/03/06 18:19:15;;;;;;;44.22;21.42;;;2.10;99.90;;;;;;6163849;23;20103;-84
2023/03/06 18:22:02;;;;;;;36.33;19.02;;;2.10;1.00;;;;;;6198715;23;20356;-86
2023/03/06 18:24:50;;;;;;;33.30;16.60;;;2.10;1.00;;;;;;6184139;23;20136;-83
2023/03/06 18:27:40;;;;;;;43.08;22.17;;;2.10;1.00;;;;;;6186056;23;20029;-85
2023/03/06 18:30:27;;;;;;;36.03;17.35;;;2.10;1.00;;;;;;6185091;23;20035;-84
2023/03/06 18:33:18;;;;;;;34.53;18.58;;;2.00;1.00;;;;;;6187136;23;20029;-87
2023/03/06 18:36:06;;;;;;;28.08;16.15;;;2.00;1.00;;;;;;6186325;23;20029;-86
2023/03/06 18:38:54;;;;;;;30.20;16.20;;;2.00;1.00;;;;;;6185500;23;20032;-85
2023/03/06 18:41:41;;;;;;;31.23;17.17;;;2.00;1.00;;;;;;6186834;23;20025;-85
2023/03/06 18:44:29;;;;;;;35.05;19.25;;;2.00;1.00;;;;;;6184161;23;20021;-84
2023/03/06 18:47:16;;;;;;;29.13;16.63;;;2.00;1.00;;;;;;6187170;23;20021;-85
2023/03/06 18:50:06;;;;;;;41.17;18.83;;;2.00;1.00;;;;;;6186067;23;20304;-84
2023/03/06 18:52:53;;;;;;;34.95;18.33;;;1.90;1.00;;;;;;6184490;23;20040;-85
2023/03/06 18:55:49;;;;;;;33.50;17.90;;;1.90;1.00;;;;;;6184961;23;20040;-84
2023/03/06 18:58:38;;;;;;;35.67;17.73;;;1.90;1.00;;;;;;6185397;23;20491;-86
2023/03/06 19:01:32;;;;;;;32.05;17.75;;;1.90;1.00;;;;;;6183947;23;20021;-87
2023/03/06 19:04:20;;;;;;;30.92;16.95;;;1.90;1.00;;;;;;6187729;23;20025;-87
2023/03/06 19:07:12;;;;;;;30.52;17.10;;;1.90;1.00;;;;;;6189706;23;20067;-85
2023/03/06 19:10:00;;;;;;;28.13;15.93;;;1.90;1.00;;;;;;6185869;23;20029;-85
2023/03/06 19:12:53;;;;;;;30.15;15.65;;;1.90;1.00;;;;;;6187467;23;20029;-86
2023/03/06 19:15:46;;;;;;;30.53;14.87;;;1.90;1.00;;;;;;6184400;23;20072;-88
2023/03/06 19:18:37;;;;;;;26.63;15.18;;;1.80;1.00;;;;;;6186742;23;20427;-86
2023/03/06 19:21:28;;;;;;;28.05;15.00;;;1.80;1.00;;;;;;6185663;23;20083;-85
2023/03/06 19:24:17;;;;;;;26.38;14.60;;;1.90;1.00;;;;;;6186602;23;20096;-83
2023/03/06 19:27:05;;;;;;;24.10;13.95;;;1.80;1.00;;;;;;6187172;23;20025;-86
2023/03/06 19:29:58;;;;;;;32.25;15.75;;;1.80;1.00;;;;;;6187937;23;20344;-86
2023/03/06 19:32:46;;;;;;;29.48;15.55;;;1.80;1.00;;;;;;6190505;23;20075;-84
2023/03/06 19:35:37;;;;;;;36.92;16.25;;;1.80;99.90;;;;;;6187685;23;20029;-85
2023/03/06 19:38:25;;;;;;;32.13;15.07;;;1.80;1.00;;;;;;6187536;23;20444;-84
2023/03/06 19:41:14;;;;;;;29.60;15.45;;;1.80;99.90;;;;;;6194354;23;20068;-86
2023/03/06 19:44:04;;;;;;;31.63;15.65;;;1.80;99.90;;;;;;6194459;23;20032;-86
2023/03/06 19:46:52;;;;;;;34.20;16.63;;;1.80;99.90;;;;;;6194979;23;20035;-85
2023/03/06 19:49:40;;;;;;;27.70;14.98;;;1.70;99.90;;;;;;6196952;23;20032;-86
2023/03/06 19:52:28;;;;;;;23.23;13.55;;;1.70;99.90;;;;;;6190504;23;20032;-86
2023/03/06 19:55:16;;;;;;;27.55;13.88;;;1.70;99.90;;;;;;6189096;23;20033;-85
2023/03/06 19:58:05;;;;;;;28.88;15.73;;;1.70;99.90;;;;;;6186470;23;20025;-84
2023/03/06 20:01:06;;;;;;;28.30;14.57;;;1.70;99.90;;;;;;6186414;23;20341;-86
2023/03/06 20:03:58;;;;;;;27.95;14.40;;;1.70;99.90;;;;;;6187504;23;20032;-86
2023/03/06 20:06:48;;;;;;;29.80;14.07;;;1.70;99.90;;;;;;6190814;23;20118;-84
2023/03/06 20:09:39;;;;;;;28.63;16.05;;;1.70;99.90;;;;;;6188751;23;20471;-86
2023/03/06 20:12:29;;;;;;;30.60;15.40;;;1.70;99.90;;;;;;6188054;23;20029;-86
2023/03/06 20:15:21;;;;;;;29.08;15.50;;;1.70;99.90;;;;;;6186386;23;20124;-85
2023/03/06 20:18:09;;;;;;;28.70;15.50;;;1.60;99.90;;;;;;6185986;23;20072;-86
2023/03/06 20:20:58;;;;;;;27.83;15.30;;;1.60;1.00;;;;;;6187253;23;20255;-85
2023/03/06 20:23:46;;;;;;;33.00;16.20;;;1.60;1.00;;;;;;6185031;23;20060;-85
2023/03/06 20:26:35;;;;;;;27.15;13.88;;;1.60;1.00;;;;;;6186476;23;20087;-85
2023/03/06 20:29:24;;;;;;;28.42;15.88;;;1.60;1.00;;;;;;6185814;23;20025;-87
2023/03/06 20:32:19;;;;;;;30.95;16.15;;;1.60;1.00;;;;;;6187505;23;20360;-85
2023/03/06 20:35:11;;;;;;;28.05;15.77;;;1.50;1.00;;;;;;6188721;23;20056;-88